createdAt,value
2022-09-20T00:00:16.321Z,100.00
2022-09-20T00:05:42.429Z,100.00
2022-09-20T00:11:18.182Z,100.00
2022-09-20T00:16:43.408Z,100.00
2022-09-20T00:22:10.953Z,100.00
2022-09-20T00:27:35.151Z,100.00
2022-09-20T00:32:57.468Z,100.00
2022-09-20T00:38:19.279Z,100.00
2022-09-20T00:43:44.454Z,100.00
2022-09-20T00:49:24.742Z,100.00
2022-09-20T00:54:47.672Z,100.00
2022-09-20T01:00:12.179Z,100.00
2022-09-20T01:05:36.421Z,100.00
2022-09-20T01:10:58.548Z,100.00
2022-09-20T01:16:22.336Z,100.00
2022-09-20T01:21:46.063Z,100.00
2022-09-20T01:27:40.901Z,100.00
2022-09-20T01:33:11.882Z,100.00
2022-09-20T01:38:43.221Z,100.00
2022-09-20T01:44:22.862Z,100.00
2022-09-20T01:50:31.043Z,100.00
2022-09-20T01:56:03.800Z,100.00
2022-09-20T02:02:04.113Z,100.00
2022-09-20T02:07:55.901Z,100.00
2022-09-20T02:14:06.420Z,100.00
2022-09-20T02:19:51.642Z,100.00
2022-09-20T02:25:40.600Z,100.00
2022-09-20T02:31:45.356Z,100.00
2022-09-20T02:37:37.276Z,100.00
2022-09-20T02:43:19.902Z,100.00
2022-09-20T02:49:12.991Z,100.00
2022-09-20T02:54:40.881Z,100.00
2022-09-20T03:00:15.622Z,100.00
2022-09-20T03:06:08.486Z,100.00
2022-09-20T03:11:53.392Z,100.00
2022-09-20T03:17:49.387Z,100.00
2022-09-20T03:23:38.981Z,100.00
2022-09-20T03:29:23.173Z,100.00
2022-09-20T03:35:20.979Z,100.00
2022-09-20T03:40:49.348Z,100.00
2022-09-20T03:46:19.264Z,100.00
2022-09-20T03:51:59.641Z,100.00
2022-09-20T03:57:51.921Z,100.00
2022-09-20T04:03:22.872Z,100.00
2022-09-20T04:09:10.919Z,100.00
2022-09-20T04:15:00.501Z,100.00
2022-09-20T04:20:46.162Z,100.00
2022-09-20T04:26:12.858Z,100.00
2022-09-20T04:32:06.168Z,100.00
2022-09-20T04:37:33.972Z,100.00
2022-09-20T04:43:42.071Z,100.00
2022-09-20T04:49:42.572Z,100.00
2022-09-20T04:55:16.184Z,100.00
2022-09-20T05:01:05.665Z,100.00
2022-09-20T05:06:57.951Z,100.00
2022-09-20T05:12:44.912Z,100.00
2022-09-20T05:18:40.761Z,100.00
2022-09-20T05:24:29.161Z,100.00
2022-09-20T05:30:10.379Z,100.00
2022-09-20T05:36:14.151Z,100.00
2022-09-20T05:41:39.131Z,100.00
2022-09-20T05:47:19.641Z,100.00
2022-09-20T05:53:15.879Z,100.00
2022-09-20T05:59:07.227Z,100.00
2022-09-20T06:05:13.483Z,100.00
2022-09-20T06:10:48.239Z,100.00
2022-09-20T06:16:33.962Z,98.33
2022-09-20T06:22:07.001Z,93.75
2022-09-20T06:27:55.712Z,95.00
2022-09-20T06:33:29.891Z,96.67
2022-09-20T06:39:16.981Z,96.93
2022-09-20T06:44:50.632Z,97.13
2022-09-20T06:50:20.281Z,99.54
2022-09-20T06:55:53.567Z,97.64
2022-09-20T07:01:29.001Z,94.03
2022-09-20T07:07:09.251Z,94.24
2022-09-20T07:12:38.579Z,93.43
2022-09-20T07:18:04.668Z,93.13
2022-09-20T07:23:29.836Z,92.24
2022-09-20T07:28:56.762Z,92.20
2022-09-20T07:34:20.861Z,89.68
2022-09-20T07:39:43.271Z,87.34
2022-09-20T07:45:05.860Z,86.24
2022-09-20T07:50:27.871Z,85.93
2022-09-20T07:56:06.252Z,82.35
2022-09-20T08:01:28.132Z,83.81
2022-09-20T08:06:50.311Z,81.14
2022-09-20T08:17:56.820Z,82.09
2022-09-20T08:23:23.919Z,80.74
2022-09-20T08:28:48.285Z,79.77
2022-09-20T08:34:25.341Z,79.69
2022-09-20T08:39:58.325Z,79.88
2022-09-20T08:45:35.153Z,78.53
2022-09-20T08:50:58.440Z,79.02
2022-09-20T08:56:27.251Z,74.71
2022-09-20T09:01:56.238Z,73.95
2022-09-20T09:07:27.614Z,73.94
2022-09-20T09:12:52.691Z,74.18
2022-09-20T09:18:19.901Z,74.64
2022-09-20T09:23:52.135Z,75.54
2022-09-20T09:29:24.111Z,74.41
2022-09-20T09:34:46.131Z,74.97
2022-09-20T09:40:18.366Z,71.78
2022-09-20T09:45:40.864Z,73.36
2022-09-20T09:51:17.999Z,73.17
2022-09-20T09:57:11.811Z,72.22
2022-09-20T10:03:13.038Z,72.23
2022-09-20T10:08:56.407Z,73.01
2022-09-20T10:14:36.482Z,72.79
2022-09-20T10:20:23.831Z,73.68
2022-09-20T10:26:27.590Z,72.07
2022-09-20T10:32:19.562Z,70.14
2022-09-20T10:38:04.263Z,69.12
2022-09-20T10:43:42.889Z,68.39
2022-09-20T10:49:58.342Z,67.21
2022-09-20T10:55:58.099Z,67.84
2022-09-20T11:01:59.767Z,68.81
2022-09-20T11:07:32.845Z,68.36
2022-09-20T11:13:20.632Z,68.46
2022-09-20T11:19:05.280Z,69.24
2022-09-20T11:24:36.074Z,69.35
2022-09-20T11:30:14.279Z,69.23
2022-09-20T11:35:46.831Z,67.11
2022-09-20T11:41:20.722Z,66.22
2022-09-20T11:47:01.320Z,66.06
2022-09-20T11:52:44.926Z,65.52
2022-09-20T11:58:14.119Z,64.38
2022-09-20T12:03:42.219Z,63.25
2022-09-20T12:09:26.432Z,63.29
2022-09-20T12:14:57.300Z,63.52
2022-09-20T12:20:40.173Z,62.98
2022-09-20T12:26:23.979Z,61.83
2022-09-20T12:32:25.336Z,63.73
2022-09-20T12:37:49.081Z,65.90
2022-09-20T12:43:23.611Z,66.59
2022-09-20T12:48:45.702Z,67.96
2022-09-20T12:54:12.171Z,68.86
2022-09-20T12:59:47.781Z,69.79
2022-09-20T13:05:41.261Z,70.60
2022-09-20T13:11:10.195Z,69.98
2022-09-20T13:17:11.673Z,70.69
2022-09-20T13:22:44.112Z,71.37
2022-09-20T13:28:23.161Z,71.82
2022-09-20T13:33:44.992Z,72.52
2022-09-20T13:39:08.481Z,73.01
2022-09-20T13:44:34.970Z,73.55
2022-09-20T13:50:24.184Z,73.23
2022-09-20T13:55:47.054Z,73.64
2022-09-20T14:01:31.681Z,74.10
2022-09-20T14:06:57.021Z,74.58
2022-09-20T14:12:20.437Z,75.67
2022-09-20T14:17:43.144Z,76.61
2022-09-20T14:23:05.512Z,77.77
2022-09-20T14:28:29.113Z,78.78
2022-09-20T14:34:10.302Z,80.49
2022-09-20T14:39:44.854Z,81.46
2022-09-20T14:45:27.817Z,82.02
2022-09-20T14:51:18.572Z,83.12
2022-09-20T14:56:58.067Z,83.17
2022-09-20T15:02:21.996Z,83.21
2022-09-20T15:07:45.901Z,83.60
2022-09-20T15:13:11.779Z,84.88
2022-09-20T15:18:44.783Z,86.05
2022-09-20T15:24:10.101Z,86.65
2022-09-20T15:29:32.477Z,86.95
2022-09-20T15:34:54.612Z,87.45
2022-09-20T15:40:17.133Z,88.44
2022-09-20T15:45:57.941Z,88.86
2022-09-20T15:51:20.279Z,89.38
2022-09-20T15:56:42.900Z,89.98
2022-09-20T16:02:05.238Z,90.84
2022-09-20T16:07:27.332Z,91.31
2022-09-20T16:12:49.582Z,92.00
2022-09-20T16:18:30.161Z,92.65
2022-09-20T16:23:55.901Z,93.32
2022-09-20T16:29:18.621Z,94.18
2022-09-20T16:34:40.640Z,95.57
2022-09-20T16:40:03.121Z,96.90
2022-09-20T16:45:28.077Z,99.15
2022-09-20T16:50:55.520Z,100.00
2022-09-20T16:56:22.386Z,100.00
2022-09-20T17:01:47.203Z,100.00
2022-09-20T17:07:12.371Z,100.00
2022-09-20T17:12:41.952Z,100.00
2022-09-20T17:18:06.084Z,100.00
2022-09-20T17:23:27.993Z,100.00
2022-09-20T17:28:53.969Z,100.00
2022-09-20T17:34:18.073Z,100.00
2022-09-20T17:39:41.621Z,100.00
2022-09-20T17:45:03.955Z,100.00
2022-09-20T17:50:26.179Z,100.00
2022-09-20T17:55:59.963Z,100.00
2022-09-20T18:01:23.722Z,100.00
2022-09-20T18:06:48.395Z,100.00
2022-09-20T18:12:13.952Z,100.00
2022-09-20T18:17:39.842Z,100.00
2022-09-20T18:23:01.959Z,100.00
2022-09-20T18:28:24.141Z,100.00
2022-09-20T18:33:47.902Z,100.00
2022-09-20T18:39:10.011Z,100.00
2022-09-20T18:44:34.450Z,100.00
2022-09-20T18:49:56.862Z,100.00
2022-09-20T18:55:27.949Z,100.00
2022-09-20T19:01:04.816Z,100.00
2022-09-20T19:06:31.042Z,100.00
2022-09-20T19:12:02.083Z,100.00
2022-09-20T19:17:56.983Z,100.00
2022-09-20T19:23:42.024Z,100.00
2022-09-20T19:29:05.579Z,100.00
2022-09-20T19:34:31.024Z,100.00
2022-09-20T19:40:11.648Z,100.00
2022-09-20T19:45:56.151Z,100.00
2022-09-20T19:51:18.291Z,100.00
2022-09-20T19:57:14.084Z,100.00
2022-09-20T20:02:36.659Z,100.00
2022-09-20T20:08:19.722Z,100.00
2022-09-20T20:14:29.143Z,100.00
2022-09-20T20:20:15.801Z,100.00
2022-09-20T20:25:40.729Z,100.00
2022-09-20T20:31:03.522Z,100.00
2022-09-20T20:36:26.808Z,100.00
2022-09-20T20:41:53.162Z,100.00
2022-09-20T20:47:15.760Z,100.00
2022-09-20T20:52:38.402Z,100.00
2022-09-20T20:58:01.942Z,100.00
2022-09-20T21:03:24.942Z,100.00
2022-09-20T21:08:49.798Z,100.00
2022-09-20T21:14:13.323Z,100.00
2022-09-20T21:19:37.741Z,100.00
2022-09-20T21:25:05.882Z,100.00
2022-09-20T21:30:28.341Z,100.00
2022-09-20T21:35:50.761Z,100.00
2022-09-20T21:41:20.540Z,100.00
2022-09-20T21:46:43.182Z,100.00
2022-09-20T21:52:06.781Z,100.00
2022-09-20T22:03:14.282Z,100.00
2022-09-20T22:08:42.945Z,100.00
2022-09-20T22:14:05.481Z,100.00
2022-09-20T22:19:27.862Z,100.00
2022-09-20T22:24:50.091Z,100.00
2022-09-20T22:30:12.919Z,100.00
2022-09-20T22:35:35.459Z,100.00
2022-09-20T22:41:00.263Z,100.00
2022-09-20T22:46:24.562Z,100.00
2022-09-20T22:51:46.702Z,100.00
2022-09-20T22:57:09.081Z,100.00
2022-09-20T23:02:31.062Z,100.00
2022-09-20T23:07:53.783Z,100.00
2022-09-20T23:13:16.321Z,100.00
2022-09-20T23:18:38.621Z,100.00
2022-09-20T23:24:03.561Z,100.00
2022-09-20T23:29:26.214Z,100.00
2022-09-20T23:34:48.685Z,100.00
2022-09-20T23:40:11.494Z,100.00
2022-09-20T23:45:33.825Z,100.00
2022-09-20T23:50:57.165Z,100.00
2022-09-20T23:56:20.613Z,100.00
